Time;durP1;ratioP1;P1;durP2;ratioP2;P2;SDS_P1;SDS_P2;PMS_P1;PMS_P2;Temp;Humidity;BMP_temperature;BMP_pressure;BME280_temperature;BME280_humidity;BME280_pressure;Samples;Min_cycle;Max_cycle;Signal;HPM_P1;HPM_P2
2023/07/05 00:00:54;;;;;;;;;;;12.00;59.70;;;;;;4037959;29;20372;-82
2023/07/05 00:03:15;;;;;;;;;;;12.00;59.40;;;;;;4039400;29;19928;-83
2023/07/05 00:05:36;;;;;;;;;;;12.00;60.10;;;;;;4054447;29;19926;-82
2023/07/05 00:07:57;;;;;;;;;;;12.00;61.00;;;;;;4049444;29;20018;-82
2023/07/05 00:10:18;;;;;;;;;;;12.00;60.70;;;;;;4056555;29;19928;-82
2023/07/05 00:12:38;;;;;;;;;;;12.00;61.80;;;;;;4041830;29;19940;-81
2023/07/05 00:14:59;;;;;;;;;;;12.00;61.20;;;;;;4041330;29;19977;-83
2023/07/05 00:17:19;;;;;;;;;;;11.90;61.40;;;;;;4048884;29;19923;-82
2023/07/05 00:19:41;;;;;;;;;;;11.90;61.10;;;;;;4040909;29;20052;-82
2023/07/05 00:22:02;;;;;;;;;;;11.90;61.50;;;;;;4036563;29;19924;-82
2023/07/05 00:24:22;;;;;;;;;;;11.90;61.50;;;;;;4052863;29;19998;-83
2023/07/05 00:26:25;;;;;;;;;;;11.90;62.00;;;;;;4047802;29;20607;-83
2023/07/05 00:28:27;;;;;;;;;;;11.90;61.70;;;;;;4040185;29;19963;-83
2023/07/05 00:30:31;;;;;;;;;;;11.90;61.60;;;;;;4039999;29;19962;-82
2023/07/05 00:32:31;;;;;;;;;;;11.80;61.30;;;;;;4024309;29;19924;-82
2023/07/05 00:34:35;;;;;;;;;;;11.80;61.20;;;;;;4034421;29;19916;-82
2023/07/05 00:36:36;;;;;;;;;;;11.80;60.90;;;;;;4039766;29;20017;-82
2023/07/05 00:38:36;;;;;;;;;;;11.80;61.10;;;;;;4055874;29;19923;-82
2023/07/05 00:40:37;;;;;;;;;;;11.70;61.20;;;;;;4021910;29;19987;-82
2023/07/05 00:42:58;;;;;;;;;;;11.80;61.10;;;;;;4050128;29;19956;-85
2023/07/05 00:45:18;;;;;;;;;;;11.70;61.30;;;;;;4038093;29;19923;-82
2023/07/05 00:47:59;;;;;;;;;;;11.80;61.40;;;;;;4042454;29;19927;-82
2023/07/05 00:53:21;;;;;;;;;;;11.70;61.30;;;;;;4000786;29;19921;-83
2023/07/05 00:55:57;;;;;;;;;;;11.70;61.60;;;;;;3983720;29;20000;-83
2023/07/05 00:58:21;;;;;;;;;;;11.80;61.70;;;;;;3986555;29;20007;-83
2023/07/05 01:00:22;;;;;;;;;;;11.80;61.70;;;;;;4002284;29;19928;-83
2023/07/05 01:02:23;;;;;;;;;;;11.70;61.60;;;;;;3989350;29;20067;-82
2023/07/05 01:04:23;;;;;;;;;;;11.70;61.60;;;;;;3984573;29;19924;-84
2023/07/05 01:06:24;;;;;;;;;;;11.70;61.00;;;;;;3996127;29;19923;-82
2023/07/05 01:08:28;;;;;;;;;;;11.70;61.70;;;;;;3990790;29;20182;-82
2023/07/05 01:10:28;;;;;;;;;;;11.60;61.20;;;;;;4004290;29;19926;-83
2023/07/05 01:12:39;;;;;;;;;;;11.80;62.10;;;;;;3986330;29;19925;-83
2023/07/05 01:14:51;;;;;;;;;;;11.60;62.50;;;;;;3987537;29;20381;-83
2023/07/05 01:16:57;;;;;;;;;;;11.60;62.10;;;;;;4003927;29;19916;-82
2023/07/05 01:19:21;;;;;;;;;;;11.70;62.00;;;;;;3985571;29;19916;-82
2023/07/05 01:21:32;;;;;;;;;;;11.60;63.10;;;;;;3998987;29;20416;-82
2023/07/05 01:23:33;;;;;;;;;;;11.60;62.90;;;;;;3986658;29;20460;-82
2023/07/05 01:25:37;;;;;;;;;;;11.50;62.60;;;;;;3983665;29;19925;-82
2023/07/05 01:27:40;;;;;;;;;;;11.60;62.20;;;;;;4001527;29;19956;-82
2023/07/05 01:29:51;;;;;;;;;;;11.50;62.20;;;;;;3997109;29;19987;-82
2023/07/05 01:31:58;;;;;;;;;;;11.60;62.30;;;;;;4030980;29;20335;-82
2023/07/05 01:34:34;;;;;;;;;;;11.50;62.70;;;;;;4034225;29;19920;-82
2023/07/05 01:36:55;;;;;;;;;;;11.50;62.80;;;;;;4049544;29;20012;-82
2023/07/05 01:39:16;;;;;;;;;;;11.50;63.30;;;;;;4037417;29;19963;-82
2023/07/05 01:41:36;;;;;;;;;;;11.50;63.30;;;;;;4053208;29;19927;-82
2023/07/05 01:43:49;;;;;;;;;;;11.50;63.40;;;;;;4030624;29;20472;-82
2023/07/05 01:46:21;;;;;;;;;;;11.40;63.50;;;;;;4050379;29;19924;-83
2023/07/05 01:48:45;;;;;;;;;;;11.40;63.60;;;;;;4051612;29;20002;-82
2023/07/05 01:50:49;;;;;;;;;;;11.40;63.70;;;;;;4033131;29;19915;-82
2023/07/05 01:53:18;;;;;;;;;;;11.30;63.70;;;;;;4040714;29;20129;-82
2023/07/05 01:55:39;;;;;;;;;;;11.30;63.80;;;;;;4037860;29;19920;-82
2023/07/05 01:58:03;;;;;;;;;;;11.40;64.00;;;;;;4051030;29;19919;-82
2023/07/05 02:00:25;;;;;;;;;;;11.40;63.90;;;;;;4049013;29;19931;-82
2023/07/05 02:02:51;;;;;;;;;;;11.30;64.90;;;;;;4050209;29;19931;-82
2023/07/05 02:05:12;;;;;;;;;;;11.30;64.40;;;;;;4048490;29;20380;-82
2023/07/05 02:07:33;;;;;;;;;;;11.40;64.40;;;;;;4030970;29;19922;-82
2023/07/05 02:09:55;;;;;;;;;;;11.30;64.40;;;;;;4051980;29;19926;-83
2023/07/05 02:12:16;;;;;;;;;;;11.30;64.40;;;;;;4051851;29;19919;-82
2023/07/05 02:14:36;;;;;;;;;;;11.40;64.30;;;;;;4051606;29;20426;-82
2023/07/05 02:16:38;;;;;;;;;;;11.40;63.80;;;;;;4050965;29;19915;-83
2023/07/05 02:18:59;;;;;;;;;;;11.40;63.90;;;;;;4039367;29;20564;-82
2023/07/05 02:21:19;;;;;;;;;;;11.40;64.80;;;;;;4049908;29;19927;-82
2023/07/05 02:23:40;;;;;;;;;;;11.30;64.60;;;;;;4052654;29;19967;-82
2023/07/05 02:26:04;;;;;;;;;;;11.30;64.70;;;;;;4053496;29;19925;-83
2023/07/05 02:28:24;;;;;;;;;;;11.30;64.90;;;;;;4037095;29;19922;-82
2023/07/05 02:30:45;;;;;;;;;;;11.40;65.10;;;;;;4035994;29;20053;-82
2023/07/05 02:33:06;;;;;;;;;;;11.40;65.20;;;;;;4049604;29;19931;-82
2023/07/05 02:35:26;;;;;;;;;;;11.40;65.20;;;;;;4039563;29;19916;-83
2023/07/05 02:37:47;;;;;;;;;;;11.30;65.20;;;;;;4047303;29;19923;-83
2023/07/05 02:40:10;;;;;;;;;;;11.40;65.00;;;;;;4034149;29;19962;-83
2023/07/05 02:42:31;;;;;;;;;;;11.40;65.00;;;;;;4049356;29;19919;-82
2023/07/05 02:44:51;;;;;;;;;;;11.50;65.20;;;;;;4036582;29;20018;-82
2023/07/05 02:47:12;;;;;;;;;;;11.40;65.80;;;;;;4050119;29;19927;-82
2023/07/05 02:49:33;;;;;;;;;;;11.40;66.30;;;;;;4052527;29;19926;-84
2023/07/05 02:51:54;;;;;;;;;;;11.40;66.20;;;;;;4054397;29;19920;-82
2023/07/05 02:54:14;;;;;;;;;;;11.40;66.00;;;;;;4035418;29;19927;-82
2023/07/05 02:56:35;;;;;;;;;;;11.40;66.00;;;;;;4047958;29;19919;-81
2023/07/05 02:58:55;;;;;;;;;;;11.50;66.10;;;;;;4047324;29;20002;-82
2023/07/05 03:01:16;;;;;;;;;;;11.40;65.90;;;;;;4049854;29;19982;-81
2023/07/05 03:03:37;;;;;;;;;;;11.50;65.90;;;;;;4048398;29;19924;-82
2023/07/05 03:05:58;;;;;;;;;;;11.50;66.10;;;;;;4050124;29;19961;-82
2023/07/05 03:08:19;;;;;;;;;;;11.50;66.00;;;;;;4051560;29;19927;-82
2023/07/05 03:10:39;;;;;;;;;;;11.50;65.90;;;;;;4050379;29;19927;-83
2023/07/05 03:13:00;;;;;;;;;;;11.60;66.00;;;;;;4049558;29;19919;-82
2023/07/05 03:15:21;;;;;;;;;;;11.60;65.90;;;;;;4036208;29;19919;-82
2023/07/05 03:17:41;;;;;;;;;;;11.60;65.40;;;;;;4048756;29;19919;-82
2023/07/05 03:20:02;;;;;;;;;;;11.70;65.50;;;;;;4049796;29;20419;-82
2023/07/05 03:22:23;;;;;;;;;;;11.60;65.60;;;;;;4048263;29;20037;-82
2023/07/05 03:24:43;;;;;;;;;;;11.70;65.70;;;;;;4049151;29;19963;-83
2023/07/05 03:27:04;;;;;;;;;;;11.70;65.90;;;;;;4040736;29;19916;-83
2023/07/05 03:29:24;;;;;;;;;;;11.60;66.10;;;;;;4048768;29;19927;-81
2023/07/05 03:31:45;;;;;;;;;;;11.80;66.60;;;;;;4049436;29;19980;-82
2023/07/05 03:34:05;;;;;;;;;;;11.80;66.40;;;;;;4048910;29;19923;-82
2023/07/05 03:36:26;;;;;;;;;;;11.80;65.80;;;;;;4051327;29;19916;-82
2023/07/05 03:38:47;;;;;;;;;;;11.90;65.80;;;;;;4035014;29;19923;-82
2023/07/05 03:41:11;;;;;;;;;;;11.90;65.90;;;;;;4048412;29;19989;-82
2023/07/05 03:43:35;;;;;;;;;;;11.90;66.00;;;;;;4046918;29;19938;-82
2023/07/05 03:45:54;;;;;;;;;;;11.90;66.20;;;;;;4048276;29;19926;-82
2023/07/05 03:48:13;;;;;;;;;;;12.00;66.40;;;;;;4035425;29;19923;-82
2023/07/05 03:50:34;;;;;;;;;;;12.00;66.30;;;;;;4052663;29;20002;-82
2023/07/05 03:52:53;;;;;;;;;;;12.00;65.90;;;;;;4050227;29;19926;-83
2023/07/05 03:55:13;;;;;;;;;;;11.90;65.90;;;;;;4049710;29;19942;-85
2023/07/05 03:57:32;;;;;;;;;;;12.00;65.90;;;;;;4037025;29;19923;-82
2023/07/05 03:59:51;;;;;;;;;;;12.00;65.70;;;;;;4043665;29;19926;-84
2023/07/05 04:02:11;;;;;;;;;;;12.00;65.90;;;;;;4036500;29;19984;-84
2023/07/05 04:04:30;;;;;;;;;;;12.10;66.70;;;;;;4049730;29;19934;-82
2023/07/05 04:06:49;;;;;;;;;;;12.10;69.30;;;;;;4052721;29;19930;-83
2023/07/05 04:09:09;;;;;;;;;;;12.20;71.30;;;;;;4053329;29;20022;-84
2023/07/05 04:11:29;;;;;;;;;;;12.20;73.70;;;;;;4058079;29;19923;-83
2023/07/05 04:13:50;;;;;;;;;;;12.10;74.70;;;;;;4050409;29;20018;-82
2023/07/05 04:16:14;;;;;;;;;;;12.30;73.50;;;;;;4039316;29;20417;-83
2023/07/05 04:18:33;;;;;;;;;;;12.20;73.00;;;;;;4056962;29;20577;-82
2023/07/05 04:20:52;;;;;;;;;;;12.30;72.10;;;;;;4053727;29;19931;-82
2023/07/05 04:23:11;;;;;;;;;;;12.30;70.00;;;;;;4053203;29;19934;-81
2023/07/05 04:25:30;;;;;;;;;;;12.40;70.70;;;;;;4050400;29;19927;-83
2023/07/05 04:27:50;;;;;;;;;;;12.30;73.80;;;;;;4056571;29;19944;-83
2023/07/05 04:30:09;;;;;;;;;;;12.30;73.80;;;;;;4052966;29;20414;-81
2023/07/05 04:32:29;;;;;;;;;;;12.40;75.00;;;;;;4049061;29;20026;-83
2023/07/05 04:34:49;;;;;;;;;;;12.40;73.50;;;;;;4053647;29;20307;-82
2023/07/05 04:37:08;;;;;;;;;;;12.50;73.90;;;;;;4039507;29;19926;-82
2023/07/05 04:39:27;;;;;;;;;;;12.60;73.20;;;;;;4050578;29;19922;-82
2023/07/05 04:41:47;;;;;;;;;;;12.60;72.30;;;;;;4049035;29;19925;-82
2023/07/05 04:44:06;;;;;;;;;;;12.60;72.70;;;;;;4045506;29;19934;-82
2023/07/05 04:46:25;;;;;;;;;;;12.70;72.20;;;;;;4043065;29;19925;-83
2023/07/05 04:48:44;;;;;;;;;;;12.60;71.40;;;;;;4051550;29;20063;-82
2023/07/05 04:51:05;;;;;;;;;;;12.70;71.00;;;;;;4054378;29;19923;-84
2023/07/05 04:53:26;;;;;;;;;;;12.70;70.80;;;;;;4050236;29;20003;-83
2023/07/05 04:55:49;;;;;;;;;;;12.70;71.40;;;;;;4050138;29;19939;-82
2023/07/05 04:58:08;;;;;;;;;;;12.90;70.60;;;;;;4050942;29;19927;-82
2023/07/05 05:00:27;;;;;;;;;;;12.80;70.70;;;;;;4052959;29;19944;-82
2023/07/05 05:02:46;;;;;;;;;;;12.80;71.60;;;;;;4056284;29;19940;-83
2023/07/05 05:05:06;;;;;;;;;;;12.90;71.00;;;;;;4043874;29;19996;-82
2023/07/05 05:07:25;;;;;;;;;;;12.90;71.30;;;;;;4056354;29;20956;-83
2023/07/05 05:09:44;;;;;;;;;;;12.90;71.10;;;;;;4051859;29;19970;-82
2023/07/05 05:12:03;;;;;;;;;;;12.90;70.90;;;;;;4055037;29;19935;-81
2023/07/05 05:14:22;;;;;;;;;;;12.90;70.80;;;;;;4055580;29;19930;-82
2023/07/05 05:16:42;;;;;;;;;;;13.00;71.70;;;;;;4054566;29;19963;-83
2023/07/05 05:19:01;;;;;;;;;;;13.10;72.20;;;;;;4053996;29;19927;-83
2023/07/05 05:21:23;;;;;;;;;;;13.00;71.30;;;;;;4054828;29;19935;-82
2023/07/05 05:23:42;;;;;;;;;;;13.00;72.30;;;;;;4054860;29;20448;-84
2023/07/05 05:26:02;;;;;;;;;;;13.10;71.70;;;;;;4055883;29;19926;-83
2023/07/05 05:28:22;;;;;;;;;;;13.10;72.80;;;;;;4055739;29;19926;-83
2023/07/05 05:30:43;;;;;;;;;;;13.10;73.10;;;;;;4057496;29;19922;-83
2023/07/05 05:33:03;;;;;;;;;;;13.10;73.90;;;;;;4059312;29;19922;-83
2023/07/05 05:35:22;;;;;;;;;;;13.20;73.20;;;;;;4055061;29;19970;-82
2023/07/05 05:37:41;;;;;;;;;;;13.20;75.30;;;;;;4043452;29;19944;-82
2023/07/05 05:40:01;;;;;;;;;;;13.20;75.10;;;;;;4055363;29;19925;-83
2023/07/05 05:42:20;;;;;;;;;;;13.20;75.50;;;;;;4054472;29;20049;-83
2023/07/05 05:44:39;;;;;;;;;;;13.20;74.80;;;;;;4051025;29;20014;-84
2023/07/05 05:46:58;;;;;;;;;;;13.20;75.20;;;;;;4054689;29;19943;-82
2023/07/05 05:49:17;;;;;;;;;;;13.30;75.20;;;;;;4054956;29;20532;-83
2023/07/05 05:51:37;;;;;;;;;;;13.40;74.30;;;;;;4054483;29;19922;-83
2023/07/05 05:53:56;;;;;;;;;;;13.30;76.50;;;;;;4036218;29;20036;-82
2023/07/05 05:56:15;;;;;;;;;;;13.30;76.00;;;;;;4034699;29;20434;-81
2023/07/05 05:58:37;;;;;;;;;;;13.40;75.20;;;;;;4049517;29;19921;-84
2023/07/05 06:01:01;;;;;;;;;;;13.40;75.00;;;;;;4036137;29;19927;-83
2023/07/05 06:03:20;;;;;;;;;;;13.40;77.30;;;;;;4045538;29;19991;-83
2023/07/05 06:05:41;;;;;;;;;;;13.50;76.90;;;;;;4048538;29;19926;-82
2023/07/05 06:08:00;;;;;;;;;;;13.60;76.30;;;;;;4047326;29;19934;-83
2023/07/05 06:10:21;;;;;;;;;;;13.50;76.90;;;;;;4045944;29;19930;-82
2023/07/05 06:12:41;;;;;;;;;;;13.50;76.80;;;;;;4049094;29;19927;-82
2023/07/05 06:15:00;;;;;;;;;;;13.50;77.40;;;;;;4037555;29;19971;-80
2023/07/05 06:17:20;;;;;;;;;;;13.40;80.20;;;;;;4045974;29;20089;-82
2023/07/05 06:19:40;;;;;;;;;;;13.40;79.30;;;;;;4046734;29;19931;-81
2023/07/05 06:21:59;;;;;;;;;;;13.40;80.80;;;;;;4052111;29;19922;-82
2023/07/05 06:24:18;;;;;;;;;;;13.40;80.80;;;;;;4048216;29;19974;-82
2023/07/05 06:26:38;;;;;;;;;;;13.40;81.20;;;;;;4049014;29;19923;-82
2023/07/05 06:28:57;;;;;;;;;;;13.50;81.00;;;;;;4049336;29;19935;-82
2023/07/05 06:31:17;;;;;;;;;;;13.40;81.60;;;;;;4048886;29;19926;-82
2023/07/05 06:33:37;;;;;;;;;;;13.30;81.70;;;;;;4045432;29;19923;-81
2023/07/05 06:36:00;;;;;;;;;;;13.40;82.50;;;;;;4045302;29;19934;-82
2023/07/05 06:38:21;;;;;;;;;;;13.30;83.40;;;;;;4048183;29;20241;-80
2023/07/05 06:40:40;;;;;;;;;;;13.40;82.90;;;;;;4049921;29;20823;-82
2023/07/05 06:43:00;;;;;;;;;;;13.40;82.90;;;;;;4046743;29;20438;-83
2023/07/05 06:45:19;;;;;;;;;;;13.50;82.80;;;;;;4048150;29;20018;-79
2023/07/05 06:47:38;;;;;;;;;;;13.60;82.60;;;;;;4048641;29;19974;-79
2023/07/05 06:49:58;;;;;;;;;;;13.60;82.70;;;;;;4052628;29;19974;-81
2023/07/05 06:52:20;;;;;;;;;;;13.60;82.60;;;;;;4045339;29;19961;-81
2023/07/05 06:54:39;;;;;;;;;;;13.60;82.10;;;;;;4046269;29;19986;-80
2023/07/05 06:56:59;;;;;;;;;;;13.60;83.40;;;;;;4050411;29;19948;-81
2023/07/05 06:59:18;;;;;;;;;;;13.60;82.60;;;;;;4047649;29;19990;-81
2023/07/05 07:01:38;;;;;;;;;;;13.70;82.60;;;;;;4036289;29;19936;-80
2023/07/05 07:03:57;;;;;;;;;;;13.60;83.10;;;;;;4048864;29;19926;-79
2023/07/05 07:06:16;;;;;;;;;;;13.60;82.70;;;;;;4044247;29;19923;-82
2023/07/05 07:08:38;;;;;;;;;;;13.70;82.80;;;;;;4049809;29;20291;-80
2023/07/05 07:11:01;;;;;;;;;;;13.70;83.10;;;;;;4043257;29;20001;-82
2023/07/05 07:13:20;;;;;;;;;;;13.70;83.70;;;;;;4047097;29;19963;-81
2023/07/05 07:15:41;;;;;;;;;;;13.70;83.10;;;;;;4049116;29;19930;-81
2023/07/05 07:18:00;;;;;;;;;;;13.80;83.20;;;;;;4049225;29;19930;-83
2023/07/05 07:20:19;;;;;;;;;;;13.80;83.20;;;;;;4033538;29;19927;-80
2023/07/05 07:22:39;;;;;;;;;;;13.80;83.20;;;;;;4043483;29;20003;-81
2023/07/05 07:24:58;;;;;;;;;;;13.90;83.20;;;;;;4045583;29;19953;-81
2023/07/05 07:27:18;;;;;;;;;;;13.90;83.70;;;;;;4044934;29;19946;-82
2023/07/05 07:29:37;;;;;;;;;;;13.90;82.90;;;;;;4046043;29;19930;-82
2023/07/05 07:31:56;;;;;;;;;;;14.00;83.30;;;;;;4051275;29;19927;-80
2023/07/05 07:34:15;;;;;;;;;;;14.00;83.10;;;;;;4042750;29;19923;-81
2023/07/05 07:36:35;;;;;;;;;;;14.10;83.00;;;;;;4042468;29;19922;-83
2023/07/05 07:38:54;;;;;;;;;;;14.20;83.00;;;;;;4030230;29;19939;-82
2023/07/05 07:41:23;;;;;;;;;;;14.10;82.80;;;;;;4043864;29;20292;-80
2023/07/05 07:43:42;;;;;;;;;;;14.20;82.80;;;;;;4042616;29;19982;-81
2023/07/05 07:46:06;;;;;;;;;;;14.20;82.60;;;;;;4043790;29;19979;-84
2023/07/05 07:48:25;;;;;;;;;;;14.20;82.40;;;;;;4043831;29;20003;-81
2023/07/05 07:50:50;;;;;;;;;;;14.30;82.30;;;;;;4050493;29;19963;-81
2023/07/05 07:53:09;;;;;;;;;;;14.30;82.00;;;;;;4037472;29;19952;-83
2023/07/05 07:55:29;;;;;;;;;;;14.30;82.40;;;;;;4047005;29;19923;-81
2023/07/05 07:57:48;;;;;;;;;;;14.30;81.60;;;;;;4048428;29;19926;-83
2023/07/05 08:00:10;;;;;;;;;;;14.30;81.90;;;;;;4035758;29;19923;-83
2023/07/05 08:02:29;;;;;;;;;;;14.30;82.20;;;;;;4045330;29;19933;-82
2023/07/05 08:04:48;;;;;;;;;;;14.30;81.80;;;;;;4047261;29;19974;-80
2023/07/05 08:07:07;;;;;;;;;;;14.40;82.10;;;;;;4045012;29;20487;-82
2023/07/05 08:09:27;;;;;;;;;;;14.40;81.30;;;;;;4042080;29;19966;-82
2023/07/05 08:11:46;;;;;;;;;;;14.30;81.60;;;;;;4046988;29;19987;-83
2023/07/05 08:14:05;;;;;;;;;;;14.30;81.00;;;;;;4048606;29;19974;-81
2023/07/05 08:16:25;;;;;;;;;;;14.30;80.60;;;;;;4046927;29;19927;-82
2023/07/05 08:18:44;;;;;;;;;;;14.30;81.00;;;;;;4043068;29;19922;-81
2023/07/05 08:21:04;;;;;;;;;;;14.30;80.70;;;;;;4047837;29;20000;-82
2023/07/05 08:23:23;;;;;;;;;;;14.40;80.50;;;;;;4047149;29;19955;-82
2023/07/05 08:25:43;;;;;;;;;;;14.30;80.40;;;;;;4046610;29;19921;-82
2023/07/05 08:28:05;;;;;;;;;;;14.30;80.20;;;;;;4034482;29;20398;-83
2023/07/05 08:30:26;;;;;;;;;;;14.30;80.30;;;;;;4045475;29;19939;-83
2023/07/05 08:32:46;;;;;;;;;;;14.30;80.20;;;;;;4045098;29;20002;-83
2023/07/05 08:35:05;;;;;;;;;;;14.40;80.20;;;;;;4047802;29;19926;-80
2023/07/05 08:37:25;;;;;;;;;;;14.30;80.10;;;;;;4050251;29;19959;-80
2023/07/05 08:39:45;;;;;;;;;;;14.30;80.10;;;;;;4044736;29;20457;-84
2023/07/05 08:42:23;;;;;;;;;;;14.30;80.70;;;;;;4051977;29;19925;-81
2023/07/05 08:45:12;;;;;;;;;;;14.30;80.60;;;;;;4047126;29;19951;-82
2023/07/05 08:47:36;;;;;;;;;;;14.30;79.50;;;;;;4038589;29;20019;-82
2023/07/05 08:50:03;;;;;;;;;;;14.40;79.50;;;;;;4049018;29;20550;-82
2023/07/05 08:52:22;;;;;;;;;;;14.40;79.40;;;;;;4047582;29;20039;-82
2023/07/05 08:54:31;;;;;;;;;;;14.30;79.20;;;;;;4047885;29;19915;-82
2023/07/05 08:56:34;;;;;;;;;;;14.40;79.20;;;;;;4050081;29;19916;-83
2023/07/05 08:58:47;;;;;;;;;;;14.40;79.00;;;;;;4049147;29;19922;-83
2023/07/05 09:00:52;;;;;;;;;;;14.40;79.00;;;;;;4047008;29;20010;-82
2023/07/05 09:02:53;;;;;;;;;;;14.40;78.90;;;;;;4051973;29;19919;-82
2023/07/05 09:04:57;;;;;;;;;;;14.50;79.40;;;;;;4045608;29;20364;-80
2023/07/05 09:07:05;;;;;;;;;;;14.40;78.90;;;;;;4048148;29;19915;-83
2023/07/05 09:09:24;;;;;;;;;;;14.40;79.00;;;;;;4049380;29;19942;-83
2023/07/05 09:11:28;;;;;;;;;;;14.50;79.10;;;;;;4036654;29;19962;-83
2023/07/05 09:13:38;;;;;;;;;;;14.50;78.90;;;;;;4049517;29;19927;-81
2023/07/05 09:15:42;;;;;;;;;;;14.50;78.80;;;;;;4027296;29;19934;-82
2023/07/05 09:17:48;;;;;;;;;;;14.50;79.00;;;;;;4047582;29;19923;-80
2023/07/05 09:20:04;;;;;;;;;;;14.50;79.40;;;;;;4048910;29;20444;-81
2023/07/05 09:22:06;;;;;;;;;;;14.50;79.20;;;;;;4029999;29;19959;-79
2023/07/05 09:24:12;;;;;;;;;;;14.60;78.90;;;;;;4045519;29;19982;-82
2023/07/05 09:26:20;;;;;;;;;;;14.60;79.10;;;;;;4044789;29;19919;-81
2023/07/05 09:28:29;;;;;;;;;;;14.60;79.10;;;;;;4031524;29;19930;-82
2023/07/05 09:30:29;;;;;;;;;;;14.60;79.80;;;;;;4029967;29;20456;-81
2023/07/05 09:32:31;;;;;;;;;;;14.70;79.30;;;;;;4045829;29;19928;-82
2023/07/05 09:34:34;;;;;;;;;;;14.80;79.20;;;;;;4047198;29;19920;-81
2023/07/05 09:36:35;;;;;;;;;;;14.80;79.30;;;;;;4047893;29;19987;-80
2023/07/05 09:38:38;;;;;;;;;;;14.90;79.50;;;;;;4053055;29;20492;-84
2023/07/05 09:40:50;;;;;;;;;;;14.90;79.60;;;;;;4036303;29;20396;-81
2023/07/05 09:42:59;;;;;;;;;;;15.00;79.80;;;;;;4049022;29;19923;-81
2023/07/05 09:44:59;;;;;;;;;;;15.10;80.60;;;;;;4036099;29;19923;-81
2023/07/05 09:47:00;;;;;;;;;;;15.20;79.80;;;;;;4046676;29;19959;-82
2023/07/05 09:49:00;;;;;;;;;;;15.40;80.10;;;;;;4047693;29;19983;-81
2023/07/05 09:51:03;;;;;;;;;;;15.40;79.90;;;;;;4051405;29;20376;-82
2023/07/05 09:53:32;;;;;;;;;;;15.50;79.80;;;;;;4018141;29;19931;-82
2023/07/05 09:55:33;;;;;;;;;;;15.60;79.70;;;;;;4048365;29;19923;-81
2023/07/05 09:57:35;;;;;;;;;;;15.70;80.10;;;;;;4031978;29;19923;-81
2023/07/05 09:59:37;;;;;;;;;;;15.80;80.30;;;;;;4032421;29;20061;-81
2023/07/05 10:01:40;;;;;;;;;;;15.90;80.60;;;;;;4052994;29;19958;-80
2023/07/05 10:03:48;;;;;;;;;;;16.10;80.90;;;;;;4053317;29;19967;-83
2023/07/05 10:05:53;;;;;;;;;;;16.20;81.30;;;;;;4032029;29;20027;-82
2023/07/05 10:08:00;;;;;;;;;;;16.40;81.20;;;;;;4045241;29;19955;-81
2023/07/05 10:10:01;;;;;;;;;;;16.50;81.60;;;;;;4045321;29;19926;-81
2023/07/05 10:12:09;;;;;;;;;;;16.70;82.00;;;;;;4051373;29;19915;-82
2023/07/05 10:14:17;;;;;;;;;;;16.80;82.20;;;;;;4049964;29;19916;-80
2023/07/05 10:16:17;;;;;;;;;;;17.00;82.40;;;;;;4045359;29;19927;-82
2023/07/05 10:18:24;;;;;;;;;;;17.10;82.00;;;;;;4035001;29;20008;-80
2023/07/05 10:20:26;;;;;;;;;;;17.20;81.40;;;;;;4050252;29;19915;-81
2023/07/05 10:22:33;;;;;;;;;;;17.40;81.00;;;;;;4032090;29;19928;-81
2023/07/05 10:24:41;;;;;;;;;;;17.40;80.40;;;;;;4049528;29;19924;-81
2023/07/05 10:26:42;;;;;;;;;;;17.60;80.40;;;;;;4054536;29;19919;-82
2023/07/05 10:28:42;;;;;;;;;;;17.80;80.40;;;;;;4033994;29;20416;-83
2023/07/05 10:30:49;;;;;;;;;;;17.90;80.70;;;;;;4032491;29;20450;-81
2023/07/05 10:33:06;;;;;;;;;;;18.00;79.70;;;;;;4036263;29;19931;-80
2023/07/05 10:35:20;;;;;;;;;;;18.10;79.80;;;;;;4050199;29;20014;-81
2023/07/05 10:37:34;;;;;;;;;;;18.20;80.00;;;;;;4047393;29;19927;-79
2023/07/05 10:39:35;;;;;;;;;;;18.40;79.90;;;;;;4048252;29;19923;-82
2023/07/05 10:41:36;;;;;;;;;;;18.50;79.40;;;;;;4050776;29;19920;-80
2023/07/05 10:43:37;;;;;;;;;;;18.60;78.90;;;;;;4033763;29;19920;-80
2023/07/05 10:45:38;;;;;;;;;;;18.70;78.60;;;;;;4049871;29;19979;-82
2023/07/05 10:47:39;;;;;;;;;;;18.80;77.60;;;;;;4050764;29;20434;-81
2023/07/05 10:49:43;;;;;;;;;;;18.90;77.40;;;;;;4050396;29;19983;-82
2023/07/05 10:51:47;;;;;;;;;;;18.90;76.90;;;;;;4051298;29;19916;-81
2023/07/05 10:53:52;;;;;;;;;;;18.90;76.00;;;;;;4035335;29;19958;-79
2023/07/05 10:55:58;;;;;;;;;;;18.90;75.70;;;;;;4049629;29;20189;-82
2023/07/05 10:58:12;;;;;;;;;;;18.90;75.10;;;;;;4044814;29;19999;-82
2023/07/05 11:00:21;;;;;;;;;;;18.90;74.60;;;;;;4050594;29;19915;-80
2023/07/05 11:02:30;;;;;;;;;;;18.90;74.30;;;;;;4039197;29;19926;-81
2023/07/05 11:04:31;;;;;;;;;;;18.90;73.30;;;;;;4049037;29;19923;-81
2023/07/05 11:06:35;;;;;;;;;;;18.90;73.40;;;;;;4050460;29;19915;-83
2023/07/05 11:08:40;;;;;;;;;;;18.80;73.20;;;;;;4049595;29;20402;-81
2023/07/05 11:10:41;;;;;;;;;;;18.80;72.90;;;;;;4048854;29;20034;-81
2023/07/05 11:12:42;;;;;;;;;;;18.90;72.80;;;;;;4051511;29;19993;-80
2023/07/05 11:14:43;;;;;;;;;;;18.80;72.60;;;;;;4054005;29;20013;-82
2023/07/05 11:16:45;;;;;;;;;;;18.70;72.40;;;;;;4033133;29;19962;-82
2023/07/05 11:18:48;;;;;;;;;;;18.70;72.40;;;;;;4041543;29;19926;-81
2023/07/05 11:20:54;;;;;;;;;;;18.80;72.70;;;;;;4046674;29;20768;-82
2023/07/05 11:22:54;;;;;;;;;;;18.80;72.90;;;;;;4046797;29;19978;-78
2023/07/05 11:24:55;;;;;;;;;;;18.80;73.20;;;;;;4046899;29;19923;-80
2023/07/05 11:26:56;;;;;;;;;;;18.90;73.40;;;;;;4040414;29;19918;-80
2023/07/05 11:29:43;;;;;;;;;;;19.00;73.60;;;;;;4029399;29;19926;-79
2023/07/05 11:31:44;;;;;;;;;;;19.10;73.60;;;;;;4055583;29;19927;-80
2023/07/05 11:34:29;;;;;;;;;;;19.20;73.30;;;;;;4050841;29;19927;-81
2023/07/05 11:44:22;;;;;;;;;;;19.50;70.60;;;;;;4065230;23;19946;-81
2023/07/05 11:46:39;;;;;;;;;;;19.60;70.20;;;;;;4058212;29;19919;-80
2023/07/05 11:48:41;;;;;;;;;;;19.60;68.50;;;;;;4047560;29;19956;-80
2023/07/05 11:51:02;;;;;;;;;;;19.60;68.70;;;;;;4052431;29;19923;-81
2023/07/05 11:53:23;;;;;;;;;;;19.70;67.40;;;;;;4065800;29;20399;-83
2023/07/05 11:55:44;;;;;;;;;;;19.70;67.60;;;;;;4065081;29;20319;-81
2023/07/05 11:58:22;;;;;;;;;;;19.70;67.50;;;;;;4063865;29;20621;-81
2023/07/05 12:00:45;;;;;;;;;;;19.80;67.10;;;;;;4059488;29;20384;-81
2023/07/05 12:03:22;;;;;;;;;;;19.80;66.40;;;;;;4062446;29;20650;-80
2023/07/05 12:05:43;;;;;;;;;;;19.90;65.10;;;;;;4049469;29;19931;-83
2023/07/05 12:08:13;;;;;;;;;;;19.90;64.20;;;;;;4059281;29;19923;-82
2023/07/05 12:10:34;;;;;;;;;;;19.90;63.90;;;;;;4063192;29;19919;-82
2023/07/05 12:12:55;;;;;;;;;;;19.90;64.00;;;;;;4052296;29;19924;-81
2023/07/05 12:15:16;;;;;;;;;;;20.00;64.00;;;;;;4063009;29;22202;-82
2023/07/05 12:17:38;;;;;;;;;;;20.10;64.10;;;;;;4056130;29;19923;-82
2023/07/05 12:19:59;;;;;;;;;;;20.10;63.40;;;;;;4064378;29;20310;-82
2023/07/05 12:22:25;;;;;;;;;;;20.10;61.10;;;;;;4058441;29;19934;-80
2023/07/05 12:24:47;;;;;;;;;;;20.10;59.40;;;;;;4048220;29;20537;-80
2023/07/05 12:27:28;;;;;;;;;;;20.00;59.90;;;;;;4042757;29;20380;-82
2023/07/05 12:29:49;;;;;;;;;;;20.00;59.50;;;;;;4056131;29;20517;-82
2023/07/05 12:32:15;;;;;;;;;;;19.90;58.20;;;;;;4063166;29;19950;-81
2023/07/05 12:34:36;;;;;;;;;;;19.80;58.30;;;;;;4050985;29;19915;-82
2023/07/05 12:36:58;;;;;;;;;;;19.70;58.20;;;;;;4059824;29;21090;-81
2023/07/05 12:39:19;;;;;;;;;;;19.60;58.60;;;;;;4056359;29;19931;-81
2023/07/05 12:41:39;;;;;;;;;;;19.50;57.40;;;;;;4061047;29;20530;-82
2023/07/05 12:44:01;;;;;;;;;;;19.40;57.50;;;;;;4049536;29;20495;-82
2023/07/05 12:46:24;;;;;;;;;;;19.30;57.40;;;;;;4044863;29;19923;-82
2023/07/05 12:48:44;;;;;;;;;;;19.20;57.60;;;;;;4051233;29;19940;-83
2023/07/05 12:51:14;;;;;;;;;;;19.10;57.80;;;;;;4057484;29;20765;-82
2023/07/05 12:53:35;;;;;;;;;;;19.00;57.70;;;;;;4057226;29;20340;-83
2023/07/05 12:55:55;;;;;;;;;;;18.90;58.10;;;;;;4060076;29;19923;-82
2023/07/05 12:58:16;;;;;;;;;;;18.90;58.40;;;;;;4055249;29;19923;-83
2023/07/05 13:00:39;;;;;;;;;;;18.90;58.90;;;;;;4058096;29;20300;-82
2023/07/05 13:03:02;;;;;;;;;;;18.90;59.30;;;;;;4062355;29;20211;-82
2023/07/05 13:05:23;;;;;;;;;;;18.90;59.10;;;;;;4046181;29;20570;-82
2023/07/05 13:07:44;;;;;;;;;;;19.00;59.10;;;;;;4047443;29;20315;-80
2023/07/05 13:10:08;;;;;;;;;;;19.10;58.20;;;;;;4060652;29;19919;-82
2023/07/05 13:12:47;;;;;;;;;;;19.10;57.90;;;;;;4057975;29;20394;-81
2023/07/05 13:15:08;;;;;;;;;;;19.00;57.30;;;;;;4061088;29;19919;-82
2023/07/05 13:17:30;;;;;;;;;;;19.10;56.00;;;;;;4058075;29;20378;-82
2023/07/05 13:20:11;;;;;;;;;;;19.00;56.70;;;;;;4060063;29;19926;-83
2023/07/05 13:22:37;;;;;;;;;;;19.00;55.90;;;;;;4050522;29;19919;-82
2023/07/05 13:24:57;;;;;;;;;;;18.90;55.90;;;;;;4060800;29;19938;-82